Latest Weather Observations for Murganella Airstrip

IDD60801

Issued at 11:31 pm CST Sunday 20 May 2018 (issued every 10 minutes, with the page automatically refreshed every 10 minutes)

About weather observations | Map of weather stations | Latest weather observations for NT | Other Formats
Station Details ID: 014309 Name: MURGANELLA AIRSTRIP Lat: -11.55 Lon: 132.93 Height: 9.5 m
Data from the previous 72 hours. | See also: Recent months at Murganella Airstrip
Date/Time
CST
Temp
°C
App
Temp
°C
Dew
Point
°C
Rel
Hum
%
Delta-T
°C
Wind Press
QNH
hPa
Press
MSL
hPa
Rain since
9am
mm
Dir  Spd
km/h
Gust
km/h
Spd
kts
Gust
kts
20/11:30pm 21.6 25.7 20.8 95 0.5 CALM 0 0 0 0 1012.9 1012.8 0.0
20/11:00pm 21.8 25.9 20.8 94 0.6 CALM 0 0 0 0 1012.9 1012.8 0.0
20/10:30pm 22.1 26.2 20.7 92 0.9 CALM 0 0 0 0 1012.8 1012.7 0.0
20/10:00pm 22.5 26.7 21.0 91 1.0 CALM 0 0 0 0 1012.7 1012.6 0.0
20/09:30pm 22.8 27.2 21.3 91 1.0 CALM 0 0 0 0 1012.5 1012.4 0.0
20/09:00pm 23.3 27.5 21.0 87 1.5 CALM 0 0 0 0 1012.2 1012.1 0.0
20/08:30pm 24.0 28.4 21.3 85 1.8 CALM 0 0 0 0 1011.9 1011.8 0.0
20/08:00pm 24.6 29.1 21.5 83 2.1 CALM 0 0 0 0 1011.4 1011.3 0.0
20/07:30pm 25.4 29.6 21.7 80 2.5 ESE 2 4 1 2 1010.8 1010.7 0.0
20/07:00pm 26.2 30.3 21.6 76 3.1 ESE 2 4 1 2 1010.4 1010.3 0.0
20/06:30pm 26.9 30.6 21.4 72 3.7 ESE 4 6 2 3 1010.0 1009.9 0.0
20/06:00pm 27.9 31.2 21.4 67 4.3 ESE 6 11 3 6 1009.9 1009.8 0.0
20/05:30pm 28.9 32.3 21.7 65 4.8 E 6 13 3 7 1009.7 1009.6 0.0
20/05:00pm 29.6 32.1 21.0 60 5.7 E 9 20 5 11 1009.4 1009.3 0.0
20/04:30pm 31.6 33.7 21.7 55 6.7 E 13 22 7 12 1009.2 1009.1 0.0
20/04:00pm 31.0 32.5 21.2 56 6.6 ENE 15 30 8 16 1009.2 1009.1 0.0
20/03:30pm 31.7 33.2 21.2 53 7.1 E 15 28 8 15 1009.1 1009.0 0.0
20/03:00pm 31.1 32.6 21.3 56 6.6 ENE 15 32 8 17 1009.4 1009.3 0.0
20/02:30pm 31.9 33.8 21.4 53 7.1 E 13 28 7 15 1009.6 1009.5 0.0
20/02:00pm 31.4 32.0 21.0 54 7.0 E 19 33 10 18 1009.9 1009.8 0.0
20/01:30pm 31.6 32.9 20.8 52 7.2 ESE 15 26 8 14 1010.2 1010.1 0.0
20/01:00pm 30.5 30.1 20.1 53 6.9 E 22 46 12 25 1010.5 1010.4 0.0
20/12:30pm 30.8 31.1 20.4 54 6.9 E 19 33 10 18 1010.9 1010.8 0.0
20/12:00pm 30.9 31.6 20.5 54 6.9 E 17 30 9 16 1011.3 1011.2 0.0
20/11:30am 30.8 31.2 19.8 52 7.2 E 17 33 9 18 1011.6 1011.5 0.0
20/11:00am 30.5 30.9 19.8 52 7.0 ESE 17 35 9 19 1012.1 1012.0 0.0
20/10:30am 29.7 30.3 19.4 54 6.7 ESE 15 32 8 17 1012.4 1012.3 0.0
20/10:00am 28.8 29.4 19.4 56 6.1 ESE 15 32 8 17 1012.4 1012.3 0.0
20/09:30am 28.2 29.7 19.7 60 5.5 ESE 11 26 6 14 1012.2 1012.1 0.0
20/09:00am 27.3 28.7 19.6 62 5.0 ESE 11 22 6 12 1012.2 1012.1 0.0
20/08:30am 26.3 28.8 20.2 69 4.0 SE 7 17 4 9 1012.1 1012.0 0.0
20/08:00am 24.1 27.7 20.6 81 2.3 ESE 2 7 1 4 1012.0 1011.9 0.0
20/07:30am 20.6 24.1 19.6 94 0.6 CALM 0 0 0 0 1011.7 1011.6 0.0
20/07:00am 20.4 23.5 18.7 90 1.1 CALM 0 0 0 0 1011.4 1011.3 0.0
20/06:30am 21.1 24.4 19.0 88 1.3 CALM 0 2 0 1 1011.2 1011.1 0.0
20/06:00am 21.7 25.0 19.1 85 1.6 CALM 0 4 0 2 1011.0 1010.9 0.0
20/05:30am 22.1 24.5 18.9 82 2.0 SE 4 6 2 3 1011.0 1010.9 0.0
20/05:00am 22.7 24.8 19.3 81 2.2 SE 7 13 4 7 1010.7 1010.6 0.0
20/04:30am 22.6 24.7 19.4 82 2.0 SE 7 11 4 6 1010.3 1010.2 0.0
20/04:00am 21.9 24.1 19.3 85 1.7 ESE 6 7 3 4 1010.3 1010.2 0.0
20/03:30am 20.9 23.3 18.7 87 1.4 SE 4 7 2 4 1010.4 1010.3 0.0
20/03:00am 21.4 23.8 18.8 85 1.6 SE 4 7 2 4 1010.4 1010.3 0.0
20/02:30am 21.9 24.6 19.5 86 1.5 SE 4 7 2 4 1010.7 1010.6 0.0
20/02:00am 21.4 24.6 20.4 94 0.6 SE 4 9 2 5 1010.8 1010.7 0.0
20/01:30am 21.1 24.4 20.8 98 0.2 SE 4 6 2 3 1011.2 1011.1 0.0
20/01:00am 20.6 24.3 19.9 96 0.4 CALM 0 0 0 0 1011.4 1011.3 0.0
20/12:30am 20.7 24.3 19.7 94 0.6 CALM 0 0 0 0 1011.8 1011.7 0.0
20/12:00am 21.0 24.7 20.0 94 0.6 CALM 0 0 0 0 1012.0 1011.9 0.0
 
Date/Time
CST
Temp
°C
App
Temp
°C
Dew
Point
°C
Rel
Hum
%
Delta-T
°C
Wind Press
QNH
hPa
Press
MSL
hPa
Rain since
9am
mm
Dir  Spd
km/h
Gust
km/h
Spd
kts
Gust
kts
19/11:30pm 21.4 25.2 20.2 93 0.8 CALM 0 0 0 0 1012.2 1012.1 0.0
19/11:00pm 21.8 25.7 20.4 92 0.9 CALM 0 0 0 0 1012.1 1012.0 0.0
19/10:30pm 22.4 26.7 21.2 93 0.8 CALM 0 0 0 0 1012.2 1012.1 0.0
19/10:00pm 22.2 26.5 21.2 94 0.7 CALM 0 0 0 0 1012.2 1012.1 0.0
19/09:30pm 22.1 26.2 20.7 92 0.9 CALM 0 0 0 0 1011.8 1011.7 0.0
19/09:00pm 21.9 25.7 20.2 90 1.1 CALM 0 0 0 0 1011.9 1011.8 0.0
19/08:30pm 22.3 26.0 20.0 87 1.5 CALM 0 0 0 0 1011.6 1011.5 0.0
19/08:00pm 22.7 26.4 19.9 84 1.8 CALM 0 0 0 0 1011.2 1011.1 0.0
19/07:30pm 23.7 27.4 20.0 80 2.4 CALM 0 0 0 0 1010.8 1010.7 0.0
19/07:00pm 24.8 28.6 20.1 75 3.0 CALM 0 0 0 0 1010.5 1010.4 0.0
19/06:30pm 26.4 30.3 20.3 69 4.0 CALM 0 0 0 0 1010.2 1010.1 0.0
19/06:00pm 27.9 31.2 19.9 61 5.2 E 2 6 1 3 1009.9 1009.8 0.0
19/05:30pm 29.0 30.9 19.0 54 6.5 E 7 13 4 7 1009.5 1009.4 0.0
19/05:00pm 29.8 31.5 18.6 51 7.2 E 7 13 4 7 1009.1 1009.0 0.0
19/04:30pm 30.3 31.2 18.4 49 7.7 ENE 11 20 6 11 1009.0 1008.9 0.0
19/04:00pm 31.0 32.0 18.7 48 8.0 E 11 24 6 13 1009.1 1009.0 0.0
19/03:30pm 31.1 31.5 18.1 46 8.4 E 13 22 7 12 1008.9 1008.8 0.0
19/03:00pm 31.8 32.5 18.0 43 8.9 E 11 20 6 11 1008.8 1008.7 0.0
19/02:30pm 31.8 32.4 17.7 43 9.0 E 11 26 6 14 1009.1 1009.0 0.0
19/02:00pm 31.4 30.9 16.9 41 9.2 ESE 15 24 8 13 1009.2 1009.1 0.0
19/01:30pm 31.1 30.6 15.9 40 9.5 E 13 26 7 14 1009.7 1009.6 0.0
19/01:00pm 30.5 29.4 15.4 40 9.3 ESE 15 28 8 15 1009.9 1009.8 0.0
19/12:30pm 30.3 29.0 14.8 39 9.5 ESE 15 22 8 12 1010.2 1010.1 0.0
19/12:00pm 29.9 29.0 14.8 39 9.2 ESE 13 22 7 12 1010.8 1010.7 0.0
19/11:30am 30.0 30.0 15.3 41 9.0 E 9 17 5 9 1011.3 1011.2 0.0
19/11:00am 30.1 30.2 15.4 41 9.0 ESE 9 17 5 9 1011.5 1011.4 0.0
19/10:30am 28.0 26.4 13.9 42 8.4 SE 15 22 8 12 1012.0 1011.9 0.0
19/10:00am 27.4 26.1 14.8 46 7.6 ESE 15 28 8 15 1012.2 1012.1 0.0
19/09:30am 26.5 27.3 17.3 57 5.8 ESE 9 17 5 9 1012.2 1012.1 0.0
19/09:00am 21.6 23.8 19.2 86 1.5 ESE 6 9 3 5 1012.0 1011.9 0.0
19/08:30am 19.3 22.7 19.3 100 0.0 CALM 0 0 0 0 1012.0 1011.9 0.0
19/08:00am 17.9 20.6 17.7 99 0.1 CALM 0 0 0 0 1011.9 1011.8 0.0
19/07:30am 17.3 19.6 16.8 97 0.3 CALM 0 0 0 0 1011.5 1011.4 0.0
19/07:00am 17.2 19.4 16.6 96 0.4 CALM 0 0 0 0 1011.2 1011.1 0.0
19/06:30am 17.5 19.8 16.7 95 0.5 CALM 0 0 0 0 1010.7 1010.6 0.0
19/06:00am 18.0 20.4 17.0 94 0.6 CALM 0 0 0 0 1010.5 1010.4 0.0
19/05:30am 18.5 20.8 17.7 95 0.5 SE 2 4 1 2 1010.2 1010.1 0.0
19/05:00am 18.9 20.9 17.9 94 0.6 SSE 4 4 2 2 1010.2 1010.1 0.0
19/04:30am 18.9 21.1 17.4 91 0.9 SE 2 4 1 2 1010.3 1010.2 0.0
19/04:00am 19.5 22.1 17.5 88 1.2 CALM 0 2 0 1 1010.5 1010.4 0.0
19/03:30am 20.2 22.5 17.8 86 1.5 SE 2 4 1 2 1010.6 1010.5 0.0
19/03:00am 21.0 23.1 18.2 84 1.7 SE 4 7 2 4 1010.6 1010.5 0.0
19/02:30am 21.4 23.5 18.2 82 2.0 SE 4 7 2 4 1010.8 1010.7 0.0
19/02:00am 21.8 23.6 18.2 80 2.2 SE 6 7 3 4 1010.9 1010.8 0.0
19/01:30am 22.3 24.1 18.3 78 2.5 SE 6 9 3 5 1011.0 1010.9 0.0
19/01:00am 22.8 24.5 18.1 75 2.9 SE 6 11 3 6 1011.3 1011.2 0.0
19/12:30am 22.8 24.4 18.3 76 2.8 SE 7 17 4 9 1011.6 1011.5 0.0
19/12:00am 21.9 23.6 18.1 79 2.4 SE 6 9 3 5 1011.6 1011.5 0.0
 
Date/Time
CST
Temp
°C
App
Temp
°C
Dew
Point
°C
Rel
Hum
%
Delta-T
°C
Wind Press
QNH
hPa
Press
MSL
hPa
Rain since
9am
mm
Dir  Spd
km/h
Gust
km/h
Spd
kts
Gust
kts
18/11:30pm 21.1 23.4 18.5 85 1.6 SE 4 6 2 3 1011.8 1011.7 0.0
18/11:00pm 21.6 24.2 18.4 82 2.0 SE 2 4 1 2 1011.8 1011.7 0.0
18/10:30pm 21.4 23.8 18.8 85 1.6 SE 4 7 2 4 1011.7 1011.6 0.0
18/10:00pm 21.6 24.2 19.2 86 1.5 ESE 4 6 2 3 1011.7 1011.6 0.0
18/09:30pm 21.1 24.6 19.6 91 1.0 CALM 0 6 0 3 1011.6 1011.5 0.0
18/09:00pm 21.6 25.1 19.5 88 1.3 CALM 0 0 0 0 1011.3 1011.2 0.0
18/08:30pm 22.2 25.8 19.7 86 1.6 CALM 0 0 0 0 1011.2 1011.1 0.0
18/08:00pm 22.7 26.3 19.7 83 1.9 CALM 0 0 0 0 1011.0 1010.9 0.0
18/07:30pm 23.7 27.3 19.8 79 2.5 CALM 0 0 0 0 1010.4 1010.3 0.0
18/07:00pm 24.9 28.5 19.7 73 3.4 CALM 0 0 0 0 1010.0 1009.9 0.0
18/06:30pm 26.7 30.1 20.1 67 4.3 ENE 2 2 1 1 1009.4 1009.3 0.0
18/06:00pm 28.1 30.9 19.6 60 5.5 E 4 6 2 3 1008.8 1008.7 0.0
18/05:30pm 29.1 31.1 18.8 53 6.7 E 6 11 3 6 1008.8 1008.7 0.0
18/05:00pm 29.6 31.4 18.7 52 7.0 E 7 13 4 7 1008.5 1008.4 0.0
18/04:30pm 30.8 32.3 18.8 48 7.8 E 9 17 5 9 1008.4 1008.3 0.0
18/04:00pm 29.9 30.5 17.7 48 7.8 E 11 19 6 10 1008.4 1008.3 0.0
18/03:30pm 30.9 31.5 17.6 45 8.5 E 11 24 6 13 1008.5 1008.4 0.0
18/03:00pm 31.5 32.3 18.1 44 8.6 ESE 11 24 6 13 1008.7 1008.6 0.0
18/02:30pm 31.4 31.4 17.3 43 9.0 E 13 22 7 12 1009.0 1008.9 0.0
18/02:00pm 32.1 32.4 17.9 42 9.1 ESE 13 24 7 13 1009.4 1009.3 0.0
18/01:30pm 31.7 32.0 17.9 43 8.9 ESE 13 24 7 13 1009.8 1009.7 0.0
18/01:00pm 30.3 29.3 16.7 44 8.5 E 17 32 9 17 1010.2 1010.1 0.0
18/12:30pm 30.8 30.1 16.4 42 9.0 ESE 15 26 8 14 1010.5 1010.4 0.0
18/12:00pm 31.2 31.4 16.8 42 9.1 ESE 11 26 6 14 1010.9 1010.8 0.0
18/11:30am 30.0 28.9 16.4 44 8.5 E 17 26 9 14 1011.1 1011.0 0.0
18/11:00am 30.3 30.0 17.4 46 8.2 SE 15 24 8 13 1011.6 1011.5 0.0
18/10:30am 28.9 28.7 16.8 48 7.6 ESE 13 26 7 14 1011.7 1011.6 0.0
18/10:00am 28.7 29.1 17.2 49 7.2 ESE 11 22 6 12 1011.9 1011.8 0.0
18/09:30am 26.9 27.3 16.2 52 6.6 SE 9 19 5 10 1012.0 1011.9 0.0
18/09:00am 24.9 25.6 15.5 56 5.7 ESE 6 11 3 6 1012.0 1011.9 0.0
18/08:30am 22.3 23.1 14.9 63 4.4 SSE 4 6 2 3 1011.8 1011.7 0.0
18/08:00am 18.6 21.1 17.3 92 0.8 CALM 0 0 0 0 1011.7 1011.6 0.0
18/07:30am 15.5 17.3 15.5 100 0.0 CALM 0 0 0 0 1011.4 1011.3 0.0
18/07:00am 14.2 15.4 13.7 97 0.3 CALM 0 0 0 0 1011.2 1011.1 0.0
18/06:30am 14.3 15.5 13.7 96 0.3 CALM 0 0 0 0 1011.0 1010.9 0.0
18/06:00am 14.6 15.9 14.0 96 0.3 CALM 0 0 0 0 1011.0 1010.9 0.0
18/05:30am 14.8 15.8 14.2 96 0.3 SE 2 2 1 1 1011.0 1010.9 0.0
18/05:00am 15.0 16.0 14.4 96 0.3 SSE 2 2 1 1 1011.1 1011.0 0.0
18/04:30am 14.9 15.8 13.9 94 0.6 SSE 2 7 1 4 1010.9 1010.8 0.0
18/04:00am 15.4 16.8 14.4 94 0.6 CALM 0 0 0 0 1011.2 1011.1 0.0
18/03:30am 15.7 16.4 14.6 93 0.6 SSE 4 4 2 2 1011.4 1011.3 0.0
18/03:00am 16.1 17.7 14.8 92 0.7 CALM 0 4 0 2 1011.7 1011.6 0.0
18/02:30am 16.4 17.6 14.8 90 0.9 SSE 2 4 1 2 1012.0 1011.9 0.0
18/02:00am 16.7 18.2 14.7 88 1.2 CALM 0 4 0 2 1012.2 1012.1 0.0
18/01:30am 17.4 18.5 14.7 84 1.6 SSE 2 4 1 2 1012.5 1012.4 0.0
18/01:00am 18.3 19.8 14.6 79 2.1 CALM 0 2 0 1 1012.7 1012.6 0.0
18/12:30am 19.1 20.1 14.4 74 2.7 SE 2 4 1 2 1012.8 1012.7 0.0
18/12:00am 19.4 19.7 14.6 74 2.8 SE 6 9 3 5 1012.8 1012.7 0.0

Other Formats:

Comma delimited format used in spreadsheet applications
http://www.bom.gov.au/fwo/IDD60801/IDD60801.94109.axf

JavaScript Object Notation format (JSON) in row-major order
http://www.bom.gov.au/fwo/IDD60801/IDD60801.94109.json